Time;durP1;ratioP1;P1;durP2;ratioP2;P2;SDS_P1;SDS_P2;PMS_P1;PMS_P2;Temp;Humidity;BMP_temperature;BMP_pressure;BME280_temperature;BME280_humidity;BME280_pressure;Samples;Min_cycle;Max_cycle;Signal;HPM_P1;HPM_P2
2022/01/21 00:00:23;;;;;;;8.27;1.50;;;;;;;;;;4969991;28;107016;-71
2022/01/21 00:02:49;;;;;;;13.75;2.03;;;;;;;;;;4961966;28;106872;-70
2022/01/21 00:05:16;;;;;;;12.10;1.90;;;;;;;;;;4971443;28;106969;-70
2022/01/21 00:07:42;;;;;;;16.80;2.42;;;;;;;;;;4964293;28;106932;-70
2022/01/21 00:10:09;;;;;;;13.00;2.15;;;;;;;;;;4968589;28;107740;-70
2022/01/21 00:12:36;;;;;;;16.77;2.70;;;;;;;;;;4969598;28;107079;-69
2022/01/21 00:15:04;;;;;;;23.42;3.47;;;;;;;;;;4970476;28;106152;-69
2022/01/21 00:17:30;;;;;;;11.65;1.90;;;;;;;;;;4967813;28;106884;-69
2022/01/21 00:30:56;;;;;;;18.50;2.28;;;;;;;;;;4962679;28;106227;-69
2022/01/21 00:33:23;;;;;;;23.08;2.92;;;;;;;;;;4971239;28;105796;-69
2022/01/21 00:35:49;;;;;;;13.18;2.10;;;;;;;;;;4962117;28;106800;-69
2022/01/21 00:38:16;;;;;;;30.33;3.20;;;;;;;;;;4982294;28;107556;-70
2022/01/21 00:40:42;;;;;;;16.30;2.03;;;;;;;;;;4949284;28;105692;-69
2022/01/21 00:43:29;;;;;;;14.23;1.98;;;;;;;;;;4984943;28;108608;-70
2022/01/21 00:45:56;;;;;;;15.60;2.60;;;;;;;;;;4965843;28;109055;-69
2022/01/21 00:48:22;;;;;;;10.75;2.70;;;;;;;;;;4952312;28;106525;-70
2022/01/21 00:50:49;;;;;;;15.98;2.33;;;;;;;;;;4952190;28;108349;-70
2022/01/21 00:53:15;;;;;;;18.98;2.50;;;;;;;;;;4957026;28;105639;-70
2022/01/21 00:55:42;;;;;;;16.23;2.30;;;;;;;;;;4950574;28;108748;-69
2022/01/21 00:58:08;;;;;;;14.88;1.98;;;;;;;;;;4954903;28;109456;-70
2022/01/21 01:00:36;;;;;;;15.93;2.55;;;;;;;;;;4965600;28;105728;-69
2022/01/21 01:03:03;;;;;;;12.90;2.15;;;;;;;;;;4966932;28;106714;-69
2022/01/21 01:05:30;;;;;;;16.23;2.17;;;;;;;;;;4963624;28;106408;-69
2022/01/21 01:07:59;;;;;;;10.70;1.80;;;;;;;;;;4961357;28;105960;-69
2022/01/21 01:10:42;;;;;;;18.55;2.38;;;;;;;;;;4961504;28;107867;-70
2022/01/21 01:21:24;;;;;;;16.75;2.20;;;;;;;;;;4950583;28;106186;-70
2022/01/21 01:27:35;;;;;;;12.00;2.20;;;;;;;;;;4955527;28;106210;-69
2022/01/21 01:29:34;;;;;;;15.82;2.45;;;;;;;;;;4955607;28;106406;-69
2022/01/21 01:32:01;;;;;;;17.85;1.90;;;;;;;;;;4964215;28;106204;-70
2022/01/21 01:34:28;;;;;;;20.33;2.08;;;;;;;;;;4978184;28;108468;-69
2022/01/21 01:36:58;;;;;;;11.75;1.65;;;;;;;;;;4972856;28;106871;-70
2022/01/21 01:42:00;;;;;;;13.82;2.10;;;;;;;;;;4962311;28;106558;-69
2022/01/21 01:49:56;;;;;;;14.73;1.55;;;;;;;;;;4959572;28;105924;-69
2022/01/21 01:52:22;;;;;;;12.18;2.50;;;;;;;;;;4949338;28;108735;-70
2022/01/21 01:54:51;;;;;;;14.07;2.35;;;;;;;;;;4956621;28;108518;-70
2022/01/21 01:57:18;;;;;;;22.30;2.25;;;;;;;;;;4951515;28;106351;-69
2022/01/21 01:59:44;;;;;;;11.55;1.98;;;;;;;;;;4965050;28;109138;-70
2022/01/21 02:02:12;;;;;;;10.35;2.17;;;;;;;;;;4950395;28;106329;-70
2022/01/21 02:04:39;;;;;;;13.45;1.75;;;;;;;;;;4964367;28;107146;-71
2022/01/21 02:07:06;;;;;;;12.80;1.90;;;;;;;;;;4963240;28;109275;-71
2022/01/21 02:09:32;;;;;;;13.70;1.80;;;;;;;;;;4963188;22;107851;-75
2022/01/21 02:11:59;;;;;;;18.73;2.40;;;;;;;;;;4943334;28;107485;-74
2022/01/21 02:14:30;;;;;;;14.60;1.70;;;;;;;;;;4947001;28;109029;-75
2022/01/21 02:22:11;;;;;;;9.73;2.13;;;;;;;;;;4945643;28;105985;-74
2022/01/21 02:27:13;;;;;;;16.00;1.95;;;;;;;;;;4939960;28;109898;-74
2022/01/21 02:29:49;;;;;;;9.80;1.90;;;;;;;;;;4946898;28;106252;-74
2022/01/21 02:32:18;;;;;;;11.65;1.63;;;;;;;;;;4947498;28;108347;-74
2022/01/21 02:34:45;;;;;;;16.40;2.15;;;;;;;;;;4930470;28;109087;-74
2022/01/21 02:37:13;;;;;;;19.92;2.53;;;;;;;;;;4950656;28;106327;-74
2022/01/21 02:39:40;;;;;;;13.98;2.30;;;;;;;;;;4929646;28;108416;-74
2022/01/21 02:42:07;;;;;;;13.35;2.10;;;;;;;;;;4958638;28;107284;-74
2022/01/21 02:44:33;;;;;;;18.58;1.95;;;;;;;;;;4947482;28;106714;-74
2022/01/21 02:47:02;;;;;;;16.05;1.75;;;;;;;;;;4948160;28;106156;-74
2022/01/21 02:49:34;;;;;;;14.68;1.80;;;;;;;;;;4910506;28;106711;-74
2022/01/21 02:52:01;;;;;;;14.10;2.40;;;;;;;;;;4930996;28;108352;-74
2022/01/21 02:54:30;;;;;;;18.30;2.13;;;;;;;;;;4942537;28;109513;-74
2022/01/21 02:56:58;;;;;;;9.93;1.80;;;;;;;;;;4946531;28;106690;-74
2022/01/21 02:59:25;;;;;;;16.90;1.85;;;;;;;;;;4941360;28;107103;-75
2022/01/21 03:01:51;;;;;;;13.85;2.00;;;;;;;;;;4941708;28;108725;-74
2022/01/21 03:04:35;;;;;;;15.20;1.73;;;;;;;;;;4947660;28;106703;-75
2022/01/21 03:07:02;;;;;;;12.00;1.90;;;;;;;;;;4948548;28;106083;-74
2022/01/21 03:09:28;;;;;;;20.63;2.08;;;;;;;;;;4927252;28;105979;-75
2022/01/21 03:11:55;;;;;;;11.90;1.60;;;;;;;;;;4947865;28;106027;-74
2022/01/21 03:14:22;;;;;;;15.13;1.58;;;;;;;;;;4944074;28;107192;-73
2022/01/21 03:16:48;;;;;;;15.90;1.88;;;;;;;;;;4931834;28;107702;-74
2022/01/21 03:19:14;;;;;;;14.48;2.10;;;;;;;;;;4945669;28;108428;-74
2022/01/21 03:21:41;;;;;;;15.15;2.08;;;;;;;;;;4947132;28;109174;-73
2022/01/21 03:24:08;;;;;;;21.98;1.70;;;;;;;;;;4931026;28;106581;-74
2022/01/21 03:26:35;;;;;;;13.00;1.50;;;;;;;;;;4939020;28;107153;-74
2022/01/21 03:29:03;;;;;;;11.75;1.52;;;;;;;;;;4927237;28;106136;-74
2022/01/21 03:31:34;;;;;;;19.25;1.90;;;;;;;;;;4944207;28;108465;-74
2022/01/21 03:34:03;;;;;;;18.25;1.73;;;;;;;;;;4943820;28;108882;-74
2022/01/21 03:36:32;;;;;;;9.57;1.30;;;;;;;;;;4931972;28;106035;-74
2022/01/21 03:38:58;;;;;;;10.57;1.58;;;;;;;;;;4945628;28;108312;-74
2022/01/21 03:41:25;;;;;;;12.10;1.70;;;;;;;;;;4949066;28;108318;-74
2022/01/21 03:43:52;;;;;;;13.55;2.15;;;;;;;;;;4946374;28;105984;-75
2022/01/21 03:46:18;;;;;;;12.73;1.30;;;;;;;;;;4948968;28;108416;-74
2022/01/21 03:48:48;;;;;;;13.00;1.83;;;;;;;;;;4945080;28;108962;-74
2022/01/21 03:51:16;;;;;;;10.25;1.60;;;;;;;;;;4950593;28;108792;-74
2022/01/21 03:53:44;;;;;;;12.25;2.22;;;;;;;;;;4949321;28;109052;-76
2022/01/21 03:56:10;;;;;;;13.20;1.85;;;;;;;;;;4951638;28;106787;-74
2022/01/21 03:58:37;;;;;;;14.45;1.52;;;;;;;;;;4949583;28;106680;-75
2022/01/21 04:01:05;;;;;;;17.55;2.38;;;;;;;;;;4949055;28;109003;-75
2022/01/21 04:03:31;;;;;;;10.15;1.33;;;;;;;;;;4946579;28;106218;-74
2022/01/21 04:05:58;;;;;;;12.05;1.67;;;;;;;;;;4949219;28;108959;-75
2022/01/21 04:08:25;;;;;;;12.07;1.30;;;;;;;;;;4949925;28;108451;-75
2022/01/21 04:10:54;;;;;;;20.70;1.67;;;;;;;;;;4951455;28;106675;-74
2022/01/21 04:13:26;;;;;;;10.77;2.60;;;;;;;;;;4948145;28;108835;-75
2022/01/21 04:15:57;;;;;;;9.45;1.30;;;;;;;;;;4945046;28;107240;-75
2022/01/21 04:18:24;;;;;;;15.55;1.83;;;;;;;;;;4950151;28;108301;-75
2022/01/21 04:20:54;;;;;;;16.00;1.30;;;;;;;;;;4947951;28;108864;-75
2022/01/21 04:23:22;;;;;;;11.75;1.20;;;;;;;;;;4948843;28;106291;-75
2022/01/21 04:25:50;;;;;;;9.70;1.30;;;;;;;;;;4948077;28;108651;-75
2022/01/21 04:28:16;;;;;;;12.07;1.80;;;;;;;;;;4949659;28;109729;-74
2022/01/21 04:30:44;;;;;;;9.20;1.55;;;;;;;;;;4937773;28;106136;-75
2022/01/21 04:33:12;;;;;;;20.20;2.10;;;;;;;;;;4949454;28;108810;-75
2022/01/21 04:35:40;;;;;;;7.82;1.40;;;;;;;;;;4952741;28;106084;-75
2022/01/21 04:38:09;;;;;;;9.70;1.40;;;;;;;;;;4955514;28;107100;-75
2022/01/21 04:40:46;;;;;;;17.75;1.50;;;;;;;;;;4955121;28;108985;-75
2022/01/21 04:48:44;;;;;;;15.73;1.52;;;;;;;;;;4934981;28;107877;-75
2022/01/21 04:51:16;;;;;;;9.88;1.20;;;;;;;;;;4958279;28;106495;-75
2022/01/21 04:53:44;;;;;;;4.50;1.20;;;;;;;;;;4959224;28;106749;-74
2022/01/21 04:56:16;;;;;;;8.88;1.30;;;;;;;;;;4939889;28;106298;-75
2022/01/21 04:58:43;;;;;;;10.20;1.35;;;;;;;;;;4954137;28;107529;-75
2022/01/21 05:01:10;;;;;;;13.60;1.77;;;;;;;;;;4956120;28;106145;-75
2022/01/21 05:03:39;;;;;;;14.90;1.60;;;;;;;;;;4953536;28;106991;-75
2022/01/21 05:06:06;;;;;;;15.45;1.75;;;;;;;;;;4960129;28;107638;-75
2022/01/21 05:08:54;;;;;;;7.38;1.40;;;;;;;;;;4953889;28;108944;-75
2022/01/21 05:11:21;;;;;;;13.10;1.60;;;;;;;;;;4950456;28;106365;-74
2022/01/21 05:14:11;;;;;;;10.32;1.67;;;;;;;;;;4932535;28;107940;-75
2022/01/21 05:16:49;;;;;;;8.80;1.17;;;;;;;;;;4937913;28;108716;-75
2022/01/21 05:19:17;;;;;;;10.70;1.67;;;;;;;;;;4945088;28;107723;-76
2022/01/21 05:22:04;;;;;;;7.65;1.20;;;;;;;;;;4948532;28;109034;-76
2022/01/21 05:24:36;;;;;;;9.95;2.20;;;;;;;;;;4953517;28;106511;-75
2022/01/21 05:27:03;;;;;;;9.65;1.60;;;;;;;;;;4954358;28;107908;-75
2022/01/21 05:29:56;;;;;;;9.10;1.38;;;;;;;;;;4953595;28;106643;-75
2022/01/21 05:32:29;;;;;;;7.50;1.23;;;;;;;;;;4952579;28;105862;-75
2022/01/21 05:35:07;;;;;;;14.02;1.70;;;;;;;;;;4954823;28;107928;-76
2022/01/21 05:37:46;;;;;;;8.82;1.48;;;;;;;;;;4950264;28;106528;-76
2022/01/21 05:40:43;;;;;;;7.28;1.25;;;;;;;;;;4951357;28;106887;-76
2022/01/21 05:43:33;;;;;;;14.85;1.80;;;;;;;;;;4938917;28;106318;-76
2022/01/21 05:49:22;;;;;;;12.27;1.50;;;;;;;;;;4947971;28;107764;-75
2022/01/21 05:51:49;;;;;;;15.27;1.88;;;;;;;;;;4942329;28;106127;-76
2022/01/21 05:54:45;;;;;;;12.13;1.70;;;;;;;;;;4940276;28;107301;-76
2022/01/21 05:57:19;;;;;;;11.30;1.70;;;;;;;;;;4949456;28;108299;-75
2022/01/21 05:59:49;;;;;;;14.20;1.53;;;;;;;;;;4949194;28;107631;-75
2022/01/21 06:02:16;;;;;;;8.70;1.48;;;;;;;;;;4949346;28;106514;-76
2022/01/21 06:04:44;;;;;;;12.30;1.52;;;;;;;;;;4937589;28;109862;-76
2022/01/21 06:07:11;;;;;;;13.00;1.93;;;;;;;;;;4947805;28;106320;-76
2022/01/21 06:09:38;;;;;;;11.57;1.33;;;;;;;;;;4932176;28;109174;-76
2022/01/21 06:12:05;;;;;;;13.18;1.73;;;;;;;;;;4931218;28;109895;-76
2022/01/21 06:14:31;;;;;;;8.77;1.33;;;;;;;;;;4949177;28;107078;-76
2022/01/21 06:16:58;;;;;;;11.27;1.98;;;;;;;;;;4948270;28;108198;-77
2022/01/21 06:19:24;;;;;;;10.50;1.67;;;;;;;;;;4946023;28;108505;-76
2022/01/21 06:21:50;;;;;;;12.00;1.85;;;;;;;;;;4950415;28;106471;-77
2022/01/21 06:24:20;;;;;;;15.02;1.70;;;;;;;;;;4947375;28;106820;-76
2022/01/21 06:26:46;;;;;;;15.25;2.20;;;;;;;;;;4932622;28;105807;-77
2022/01/21 06:29:13;;;;;;;12.13;2.10;;;;;;;;;;4948010;28;105819;-77
2022/01/21 06:31:39;;;;;;;9.18;1.50;;;;;;;;;;4947336;28;108175;-76
2022/01/21 06:34:06;;;;;;;14.63;1.60;;;;;;;;;;4950813;28;106705;-76
2022/01/21 06:36:32;;;;;;;12.55;1.90;;;;;;;;;;4944911;28;107632;-77
2022/01/21 06:38:58;;;;;;;13.55;2.08;;;;;;;;;;4946517;28;107633;-76
2022/01/21 06:41:25;;;;;;;10.75;1.73;;;;;;;;;;4948426;28;106299;-76
2022/01/21 06:43:51;;;;;;;20.42;2.67;;;;;;;;;;4950003;28;106866;-76
2022/01/21 06:46:18;;;;;;;18.10;1.83;;;;;;;;;;4952331;28;106388;-77
2022/01/21 06:48:44;;;;;;;10.93;1.50;;;;;;;;;;4945888;28;106736;-77
2022/01/21 06:51:11;;;;;;;15.45;2.13;;;;;;;;;;4949927;28;106399;-76
2022/01/21 06:53:37;;;;;;;10.02;1.90;;;;;;;;;;4947890;28;105791;-76
2022/01/21 06:56:04;;;;;;;10.05;1.60;;;;;;;;;;4947929;28;106347;-76
2022/01/21 06:58:30;;;;;;;14.25;2.53;;;;;;;;;;4947928;28;107751;-76
2022/01/21 07:00:57;;;;;;;6.90;2.08;;;;;;;;;;4928575;28;106770;-75
2022/01/21 07:03:24;;;;;;;11.55;2.67;;;;;;;;;;4941265;28;106882;-75
2022/01/21 07:05:51;;;;;;;10.35;2.28;;;;;;;;;;4951668;28;107336;-76
2022/01/21 07:08:17;;;;;;;8.93;1.95;;;;;;;;;;4951623;28;106331;-76
2022/01/21 07:10:45;;;;;;;13.70;2.15;;;;;;;;;;4951045;28;106227;-76
2022/01/21 07:13:12;;;;;;;10.52;2.03;;;;;;;;;;4952480;28;106400;-75
2022/01/21 07:15:38;;;;;;;16.27;3.03;;;;;;;;;;4935261;28;106930;-76
2022/01/21 07:18:05;;;;;;;17.08;2.58;;;;;;;;;;4949732;28;107471;-75
2022/01/21 07:20:31;;;;;;;10.80;2.35;;;;;;;;;;4933569;28;105690;-75
2022/01/21 07:22:58;;;;;;;8.63;2.25;;;;;;;;;;4951269;28;107434;-76
2022/01/21 07:25:24;;;;;;;9.30;2.33;;;;;;;;;;4950202;28;106654;-75
2022/01/21 07:27:51;;;;;;;8.13;2.58;;;;;;;;;;4952628;28;106614;-76
2022/01/21 07:30:18;;;;;;;14.23;3.10;;;;;;;;;;4952575;28;108008;-76
2022/01/21 07:32:44;;;;;;;13.15;3.03;;;;;;;;;;4950590;28;106218;-77
2022/01/21 07:35:11;;;;;;;8.27;3.13;;;;;;;;;;4950492;28;106638;-76
2022/01/21 07:37:59;;;;;;;11.10;3.50;;;;;;;;;;4948147;28;107574;-76
2022/01/21 07:40:26;;;;;;;12.73;3.65;;;;;;;;;;4931312;28;105979;-75
2022/01/21 07:42:52;;;;;;;16.20;4.00;;;;;;;;;;4932790;28;108512;-74
2022/01/21 07:45:19;;;;;;;15.70;3.13;;;;;;;;;;4948689;28;107353;-76
2022/01/21 07:47:45;;;;;;;15.18;3.03;;;;;;;;;;4950190;28;106898;-76
2022/01/21 07:50:12;;;;;;;18.63;3.63;;;;;;;;;;4951693;28;106925;-75
2022/01/21 07:52:38;;;;;;;18.30;3.30;;;;;;;;;;4926052;28;108839;-77
2022/01/21 07:55:07;;;;;;;11.35;2.63;;;;;;;;;;4952021;28;107186;-82
2022/01/21 07:57:33;;;;;;;12.18;2.40;;;;;;;;;;4950966;28;107359;-80
2022/01/21 08:00:00;;;;;;;7.05;2.38;;;;;;;;;;4952288;28;105964;-74
2022/01/21 08:02:28;;;;;;;9.30;2.45;;;;;;;;;;4948559;28;107572;-73
2022/01/21 08:04:56;;;;;;;16.83;3.00;;;;;;;;;;4948783;28;106126;-73
2022/01/21 08:07:22;;;;;;;13.43;3.75;;;;;;;;;;4948300;28;106049;-74
2022/01/21 08:09:49;;;;;;;10.02;2.58;;;;;;;;;;4948989;28;108139;-75
2022/01/21 08:12:16;;;;;;;14.18;2.85;;;;;;;;;;4948088;28;108168;-73
2022/01/21 08:14:43;;;;;;;8.15;2.65;;;;;;;;;;4953368;28;106561;-76
2022/01/21 08:17:10;;;;;;;13.73;2.78;;;;;;;;;;4950678;28;106579;-73
2022/01/21 08:19:36;;;;;;;11.27;2.80;;;;;;;;;;4948793;28;106555;-73
2022/01/21 08:22:03;;;;;;;12.60;3.47;;;;;;;;;;4951206;28;106507;-71
2022/01/21 08:24:29;;;;;;;21.15;3.42;;;;;;;;;;4941002;28;106697;-72
2022/01/21 08:26:56;;;;;;;22.52;4.15;;;;;;;;;;4951448;28;106221;-71
2022/01/21 08:29:22;;;;;;;11.00;3.65;;;;;;;;;;4949708;28;106321;-72
2022/01/21 08:31:48;;;;;;;15.70;3.63;;;;;;;;;;4948916;28;107338;-73
2022/01/21 08:34:15;;;;;;;12.55;3.70;;;;;;;;;;4945182;28;106496;-72
2022/01/21 08:36:44;;;;;;;16.10;3.80;;;;;;;;;;4948384;28;107210;-73
2022/01/21 08:39:10;;;;;;;22.10;3.85;;;;;;;;;;4948673;28;107639;-71
2022/01/21 08:41:40;;;;;;;13.32;3.83;;;;;;;;;;4950414;28;107113;-72
2022/01/21 08:44:06;;;;;;;;;;;;;;;;;;4945534;28;107544;-71
2022/01/21 08:46:33;;;;;;;16.92;2.78;;;;;;;;;;4947496;28;116987;-72
2022/01/21 08:49:06;;;;;;;10.20;3.25;;;;;;;;;;4950469;28;108079;-72
2022/01/21 08:51:39;;;;;;;27.30;4.15;;;;;;;;;;4949755;28;105956;-73
2022/01/21 08:54:06;;;;;;;16.75;3.15;;;;;;;;;;4951629;28;105933;-72
2022/01/21 08:56:32;;;;;;;13.45;3.13;;;;;;;;;;4954075;28;106246;-70
2022/01/21 08:58:59;;;;;;;15.15;2.70;;;;;;;;;;4949901;28;106643;-72
2022/01/21 09:01:25;;;;;;;10.93;2.72;;;;;;;;;;4949661;28;107172;-72
2022/01/21 09:03:52;;;;;;;13.48;3.58;;;;;;;;;;4947548;28;106888;-72
2022/01/21 09:06:19;;;;;;;19.30;3.13;;;;;;;;;;4945218;28;106249;-72
2022/01/21 09:08:46;;;;;;;14.43;2.72;;;;;;;;;;4950159;28;106699;-72
2022/01/21 09:11:13;;;;;;;14.27;2.78;;;;;;;;;;4948225;28;107255;-72
2022/01/21 09:13:41;;;;;;;18.73;2.83;;;;;;;;;;4949214;28;105701;-72
2022/01/21 09:16:08;;;;;;;20.70;2.95;;;;;;;;;;4950009;28;107440;-72
2022/01/21 09:18:46;;;;;;;15.25;3.20;;;;;;;;;;4952223;28;106929;-73
2022/01/21 09:21:28;;;;;;;10.55;2.53;;;;;;;;;;4947385;28;106468;-71
2022/01/21 09:23:55;;;;;;;17.55;2.55;;;;;;;;;;4947568;28;107282;-72
2022/01/21 09:26:23;;;;;;;16.65;2.95;;;;;;;;;;4946360;28;105942;-72
2022/01/21 09:28:54;;;;;;;13.02;2.35;;;;;;;;;;4948217;28;106915;-71
2022/01/21 09:31:20;;;;;;;12.95;2.22;;;;;;;;;;4928990;28;106777;-71
2022/01/21 09:33:48;;;;;;;12.35;3.17;;;;;;;;;;4951686;28;105864;-71
2022/01/21 09:36:16;;;;;;;13.85;3.47;;;;;;;;;;4943102;28;107554;-72
2022/01/21 09:38:42;;;;;;;16.10;3.33;;;;;;;;;;4946663;28;107801;-72
2022/01/21 09:41:09;;;;;;;13.70;2.47;;;;;;;;;;4950305;28;107148;-72
2022/01/21 09:43:38;;;;;;;19.70;2.35;;;;;;;;;;4945774;28;106824;-72
2022/01/21 09:46:07;;;;;;;10.73;2.23;;;;;;;;;;4948872;28;105606;-72
2022/01/21 09:48:50;;;;;;;18.98;3.10;;;;;;;;;;4948812;28;107326;-73
2022/01/21 09:51:17;;;;;;;14.40;3.22;;;;;;;;;;4944260;28;108025;-72
2022/01/21 09:53:44;;;;;;;15.80;2.20;;;;;;;;;;4947442;28;107262;-72
2022/01/21 09:56:11;;;;;;;14.35;2.28;;;;;;;;;;4947958;28;106538;-72
2022/01/21 09:58:39;;;;;;;15.18;3.05;;;;;;;;;;4949008;28;107042;-71
2022/01/21 10:01:10;;;;;;;16.95;2.60;;;;;;;;;;4946284;28;108184;-71
2022/01/21 10:03:40;;;;;;;19.63;2.88;;;;;;;;;;4951671;28;106374;-72
2022/01/21 10:06:07;;;;;;;14.27;2.35;;;;;;;;;;4949053;28;106827;-73
2022/01/21 10:08:36;;;;;;;14.25;2.58;;;;;;;;;;4953819;28;106864;-72
2022/01/21 10:11:03;;;;;;;19.95;2.90;;;;;;;;;;4925433;28;108390;-73
2022/01/21 10:13:31;;;;;;;16.48;2.22;;;;;;;;;;4918990;28;106557;-73
2022/01/21 10:15:58;;;;;;;17.20;2.05;;;;;;;;;;4918099;28;107106;-72
2022/01/21 10:18:24;;;;;;;18.25;2.72;;;;;;;;;;4909353;28;107472;-72
2022/01/21 10:20:57;;;;;;;13.15;2.60;;;;;;;;;;4924102;28;105735;-69
2022/01/21 10:23:23;;;;;;;21.40;2.92;;;;;;;;;;4913698;28;106738;-72
2022/01/21 10:25:57;;;;;;;16.35;2.40;;;;;;;;;;4914741;28;106163;-73
2022/01/21 10:28:24;;;;;;;15.75;2.08;;;;;;;;;;4907219;28;106792;-72
2022/01/21 10:31:02;;;;;;;19.17;2.72;;;;;;;;;;4907846;28;109119;-75
2022/01/21 10:33:29;;;;;;;20.80;3.53;;;;;;;;;;4918287;28;106381;-72
2022/01/21 10:36:09;;;;;;;21.55;2.28;;;;;;;;;;4924212;28;107549;-73
2022/01/21 10:38:43;;;;;;;15.52;2.45;;;;;;;;;;4908618;28;106440;-72
2022/01/21 10:41:11;;;;;;;19.88;2.40;;;;;;;;;;4913659;28;105885;-71
2022/01/21 10:43:38;;;;;;;18.40;2.72;;;;;;;;;;4909420;28;106725;-72
2022/01/21 10:46:04;;;;;;;24.15;2.72;;;;;;;;;;4914206;28;106482;-73
2022/01/21 10:48:32;;;;;;;18.00;2.63;;;;;;;;;;4913348;28;106526;-77
2022/01/21 10:51:19;;;;;;;19.17;2.53;;;;;;;;;;4913496;28;107323;-72
2022/01/21 10:53:46;;;;;;;16.05;2.70;;;;;;;;;;4914395;28;107880;-73
2022/01/21 10:56:15;;;;;;;14.23;2.33;;;;;;;;;;4919093;28;106840;-72
2022/01/21 10:58:42;;;;;;;;;;;;;;;;;;4930592;28;107514;-69
2022/01/21 11:01:17;;;;;;;22.02;2.53;;;;;;;;;;4919864;28;105625;-76
2022/01/21 11:04:04;;;;;;;15.80;3.03;;;;;;;;;;4915166;28;108994;-69
2022/01/21 11:06:46;;;;;;;15.73;2.05;;;;;;;;;;4910009;28;106193;-70
2022/01/21 11:09:16;;;;;;;12.70;2.47;;;;;;;;;;4919083;28;107045;-70
2022/01/21 11:11:43;;;;;;;24.27;2.88;;;;;;;;;;4928985;28;109044;-72
2022/01/21 11:14:11;;;;;;;24.42;2.70;;;;;;;;;;4934947;28;105936;-70
2022/01/21 11:16:40;;;;;;;24.17;2.80;;;;;;;;;;4936203;28;108304;-70
2022/01/21 11:19:34;;;;;;;16.60;2.50;;;;;;;;;;4941768;28;106500;-72
2022/01/21 11:22:01;;;;;;;12.95;2.55;;;;;;;;;;4939719;28;106410;-71
2022/01/21 11:24:28;;;;;;;21.65;2.72;;;;;;;;;;4940075;28;106261;-71
2022/01/21 11:27:06;;;;;;;16.55;2.80;;;;;;;;;;4931589;28;107045;-72
2022/01/21 11:29:34;;;;;;;29.80;4.35;;;;;;;;;;4930648;28;106483;-71
2022/01/21 11:32:00;;;;;;;15.32;2.40;;;;;;;;;;4950293;28;108001;-73
2022/01/21 11:34:27;;;;;;;13.80;1.90;;;;;;;;;;4938135;28;108068;-73
2022/01/21 11:36:53;;;;;;;9.00;1.75;;;;;;;;;;4927876;28;108227;-74
2022/01/21 11:39:21;;;;;;;16.75;2.55;;;;;;;;;;4927943;28;108236;-70
2022/01/21 11:41:50;;;;;;;15.15;2.08;;;;;;;;;;4945571;28;106391;-70
2022/01/21 11:44:19;;;;;;;19.83;3.63;;;;;;;;;;4928544;28;106982;-72
2022/01/21 11:47:00;;;;;;;18.42;4.18;;;;;;;;;;4929493;28;108031;-70
2022/01/21 11:49:27;;;;;;;20.88;2.47;;;;;;;;;;4928106;28;106144;-74
2022/01/21 11:52:14;;;;;;;22.85;2.78;;;;;;;;;;4949864;28;106594;-71
2022/01/21 11:54:41;;;;;;;13.60;3.47;;;;;;;;;;4936611;28;106998;-72
2022/01/21 11:57:10;;;;;;;13.82;1.90;;;;;;;;;;4946633;28;106223;-71
2022/01/21 11:59:50;;;;;;;22.60;2.40;;;;;;;;;;4936582;28;106340;-70
2022/01/21 12:02:25;;;;;;;20.38;2.45;;;;;;;;;;4932293;28;105726;-70
2022/01/21 12:04:52;;;;;;;12.98;2.10;;;;;;;;;;4947900;28;108223;-71
2022/01/21 12:07:44;;;;;;;19.00;2.25;;;;;;;;;;4930338;28;107062;-71
2022/01/21 12:10:23;;;;;;;16.70;2.00;;;;;;;;;;4946244;28;106517;-74
2022/01/21 12:12:55;;;;;;;18.73;2.03;;;;;;;;;;4932909;28;106009;-71
2022/01/21 12:15:23;;;;;;;14.93;2.22;;;;;;;;;;4926777;28;106577;-71
2022/01/21 12:18:03;;;;;;;14.52;1.90;;;;;;;;;;4937197;28;105714;-71
2022/01/21 12:20:31;;;;;;;15.52;2.90;;;;;;;;;;4925208;28;108551;-72
2022/01/21 12:23:08;;;;;;;24.58;4.63;;;;;;;;;;4931229;28;106372;-71
2022/01/21 12:25:35;;;;;;;24.80;3.65;;;;;;;;;;4942604;28;108766;-70
2022/01/21 12:28:14;;;;;;;15.90;3.00;;;;;;;;;;4931209;28;107339;-71
2022/01/21 12:30:51;;;;;;;14.02;2.25;;;;;;;;;;4930381;28;106619;-70
2022/01/21 12:33:49;;;;;;;12.07;1.85;;;;;;;;;;4950038;28;107702;-70
2022/01/21 12:36:17;;;;;;;14.60;1.77;;;;;;;;;;4928819;28;106263;-73
2022/01/21 12:41:16;;;;;;;15.35;1.98;;;;;;;;;;4931010;28;106576;-72
2022/01/21 12:43:46;;;;;;;11.57;1.98;;;;;;;;;;4933024;28;106304;-71
2022/01/21 12:46:31;;;;;;;17.48;2.22;;;;;;;;;;4928302;28;107496;-74
2022/01/21 12:48:59;;;;;;;12.30;2.10;;;;;;;;;;4942961;28;110140;-70
2022/01/21 12:57:25;;;;;;;19.63;2.10;;;;;;;;;;4927858;28;106188;-72
2022/01/21 12:59:55;;;;;;;10.57;1.60;;;;;;;;;;4929980;28;106345;-70
2022/01/21 13:02:27;;;;;;;10.43;2.10;;;;;;;;;;4934692;28;107518;-71
2022/01/21 13:05:08;;;;;;;14.13;2.92;;;;;;;;;;4929348;28;107473;-70
2022/01/21 13:07:35;;;;;;;20.58;2.05;;;;;;;;;;4932205;28;106185;-71
2022/01/21 13:10:06;;;;;;;19.48;2.05;;;;;;;;;;4948839;28;108278;-72
2022/01/21 13:15:41;;;;;;;16.58;1.83;;;;;;;;;;4951444;28;106221;-71
2022/01/21 13:18:16;;;;;;;9.48;1.52;;;;;;;;;;4948902;28;108901;-72
2022/01/21 13:20:45;;;;;;;16.20;2.20;;;;;;;;;;4930098;28;110631;-75
2022/01/21 13:23:13;;;;;;;11.90;1.70;;;;;;;;;;4945753;28;106262;-73
2022/01/21 13:25:45;;;;;;;15.15;2.13;;;;;;;;;;4950497;28;106443;-72
2022/01/21 13:28:11;;;;;;;13.82;1.67;;;;;;;;;;4950645;28;106406;-74
2022/01/21 13:30:38;;;;;;;20.88;1.85;;;;;;;;;;4952292;28;107885;-73
2022/01/21 13:33:05;;;;;;;16.60;2.90;;;;;;;;;;4953415;28;106133;-72
2022/01/21 13:35:33;;;;;;;10.52;1.60;;;;;;;;;;4953082;28;106845;-73
2022/01/21 13:38:13;;;;;;;17.02;2.67;;;;;;;;;;4946768;28;108088;-73
2022/01/21 13:40:39;;;;;;;;;;;;;;;;;;4951411;28;106188;-72
2022/01/21 13:43:16;;;;;;;16.92;2.28;;;;;;;;;;4951919;28;136330;-73
2022/01/21 13:45:52;;;;;;;11.43;1.95;;;;;;;;;;4946894;28;106223;-72
2022/01/21 13:48:20;;;;;;;13.85;1.85;;;;;;;;;;4950187;28;106697;-72
2022/01/21 13:50:47;;;;;;;12.65;1.90;;;;;;;;;;4947643;28;107324;-72
2022/01/21 13:53:13;;;;;;;18.83;3.00;;;;;;;;;;4949692;28;107600;-74
2022/01/21 13:55:42;;;;;;;11.48;1.90;;;;;;;;;;4960382;28;107452;-73
2022/01/21 13:58:10;;;;;;;12.95;1.65;;;;;;;;;;4952179;28;107359;-73
2022/01/21 14:00:42;;;;;;;17.08;2.00;;;;;;;;;;4952736;28;106280;-73
2022/01/21 14:03:10;;;;;;;12.45;2.90;;;;;;;;;;4944834;28;105621;-73
2022/01/21 14:05:45;;;;;;;11.35;2.05;;;;;;;;;;4954213;28;107231;-71
2022/01/21 14:08:14;;;;;;;21.13;2.35;;;;;;;;;;4965603;28;107588;-73
2022/01/21 14:10:41;;;;;;;14.38;2.42;;;;;;;;;;4955781;28;107277;-73
2022/01/21 14:13:07;;;;;;;11.68;2.00;;;;;;;;;;4949626;28;105695;-73
2022/01/21 14:15:34;;;;;;;11.27;1.65;;;;;;;;;;4952732;28;106878;-71
2022/01/21 14:18:01;;;;;;;15.35;1.92;;;;;;;;;;4953895;28;106299;-70
2022/01/21 14:20:31;;;;;;;9.77;1.58;;;;;;;;;;4955488;28;106833;-71
2022/01/21 14:22:57;;;;;;;7.05;1.45;;;;;;;;;;4952865;28;106959;-71
2022/01/21 14:25:24;;;;;;;6.07;1.30;;;;;;;;;;4950868;28;106227;-72
2022/01/21 14:27:51;;;;;;;8.88;1.35;;;;;;;;;;4953963;28;107339;-72
2022/01/21 14:30:20;;;;;;;8.45;1.33;;;;;;;;;;4947556;28;107062;-71
2022/01/21 14:32:53;;;;;;;14.23;1.40;;;;;;;;;;4954766;28;109019;-73
2022/01/21 14:35:27;;;;;;;10.23;1.42;;;;;;;;;;4950083;28;108164;-72
2022/01/21 14:37:58;;;;;;;9.98;1.50;;;;;;;;;;4950979;28;107284;-71
2022/01/21 14:40:26;;;;;;;10.07;1.38;;;;;;;;;;4934034;28;107036;-73
2022/01/21 14:43:01;;;;;;;10.85;1.60;;;;;;;;;;4949443;28;106421;-71
2022/01/21 14:45:29;;;;;;;9.85;1.77;;;;;;;;;;4948506;28;109250;-71
2022/01/21 14:47:55;;;;;;;14.20;1.75;;;;;;;;;;4950728;28;106825;-70
2022/01/21 14:50:23;;;;;;;8.85;1.45;;;;;;;;;;4949989;28;107045;-73
2022/01/21 14:53:10;;;;;;;8.38;1.70;;;;;;;;;;4952529;28;106344;-71
2022/01/21 14:55:38;;;;;;;13.10;2.50;;;;;;;;;;4953026;28;107243;-71
2022/01/21 14:58:16;;;;;;;14.68;2.15;;;;;;;;;;4950331;28;107538;-71
2022/01/21 15:00:50;;;;;;;12.13;1.85;;;;;;;;;;4948151;28;107448;-71
2022/01/21 15:03:19;;;;;;;13.32;1.80;;;;;;;;;;4951309;28;106221;-72
2022/01/21 15:05:47;;;;;;;14.02;2.20;;;;;;;;;;4952051;28;107351;-72
2022/01/21 15:08:31;;;;;;;11.23;2.10;;;;;;;;;;4939781;28;106177;-73
2022/01/21 15:11:18;;;;;;;7.50;1.52;;;;;;;;;;4951886;28;109478;-72
2022/01/21 15:16:30;;;;;;;13.52;2.00;;;;;;;;;;4953052;28;106444;-72
2022/01/21 15:18:58;;;;;;;14.35;1.83;;;;;;;;;;4944996;28;106440;-72
2022/01/21 15:21:27;;;;;;;12.02;2.30;;;;;;;;;;4937799;28;107048;-72
2022/01/21 15:23:54;;;;;;;15.17;2.30;;;;;;;;;;4947895;28;106621;-72
2022/01/21 15:26:42;;;;;;;17.35;2.13;;;;;;;;;;4949272;28;108590;-73
2022/01/21 15:29:09;;;;;;;17.30;2.42;;;;;;;;;;4948800;28;106382;-72
2022/01/21 15:31:36;;;;;;;11.80;2.28;;;;;;;;;;4954264;28;106475;-73
2022/01/21 15:34:04;;;;;;;15.98;2.03;;;;;;;;;;4949562;28;107473;-72